sensor_id;sensor_type;location;lat;lon;timestamp;P1;durP1;ratioP1;P2;durP2;ratioP2
82352;SDS011;71954;47.430;18.920;2023-12-20T00:02:08;41.85;;;12.70;;
82352;SDS011;71954;47.430;18.920;2023-12-20T00:04:35;36.17;;;11.07;;
82352;SDS011;71954;47.430;18.920;2023-12-20T00:07:02;38.88;;;11.70;;
82352;SDS011;71954;47.430;18.920;2023-12-20T00:09:29;32.35;;;11.90;;
82352;SDS011;71954;47.430;18.920;2023-12-20T00:11:55;34.97;;;12.23;;
82352;SDS011;71954;47.430;18.920;2023-12-20T00:14:23;39.33;;;11.70;;
82352;SDS011;71954;47.430;18.920;2023-12-20T00:16:49;33.28;;;11.82;;
82352;SDS011;71954;47.430;18.920;2023-12-20T00:19:16;36.28;;;13.23;;
82352;SDS011;71954;47.430;18.920;2023-12-20T00:21:42;35.67;;;11.85;;
82352;SDS011;71954;47.430;18.920;2023-12-20T00:24:09;43.08;;;12.68;;
82352;SDS011;71954;47.430;18.920;2023-12-20T00:26:36;44.83;;;13.20;;
82352;SDS011;71954;47.430;18.920;2023-12-20T00:29:02;34.67;;;12.13;;
82352;SDS011;71954;47.430;18.920;2023-12-20T00:31:29;35.05;;;11.95;;
82352;SDS011;71954;47.430;18.920;2023-12-20T00:33:55;34.25;;;12.38;;
82352;SDS011;71954;47.430;18.920;2023-12-20T00:36:22;29.70;;;11.27;;
82352;SDS011;71954;47.430;18.920;2023-12-20T00:38:49;32.30;;;12.40;;
82352;SDS011;71954;47.430;18.920;2023-12-20T00:41:17;32.13;;;12.88;;
82352;SDS011;71954;47.430;18.920;2023-12-20T00:43:44;35.03;;;13.63;;
82352;SDS011;71954;47.430;18.920;2023-12-20T00:46:10;30.95;;;12.98;;
82352;SDS011;71954;47.430;18.920;2023-12-20T00:48:37;33.55;;;12.80;;
82352;SDS011;71954;47.430;18.920;2023-12-20T00:51:04;37.70;;;12.52;;
82352;SDS011;71954;47.430;18.920;2023-12-20T00:53:30;38.60;;;12.40;;
82352;SDS011;71954;47.430;18.920;2023-12-20T00:55:57;26.95;;;11.77;;
82352;SDS011;71954;47.430;18.920;2023-12-20T00:58:25;36.13;;;11.90;;
82352;SDS011;71954;47.430;18.920;2023-12-20T01:00:52;41.50;;;11.32;;
82352;SDS011;71954;47.430;18.920;2023-12-20T01:03:19;29.25;;;11.73;;
82352;SDS011;71954;47.430;18.920;2023-12-20T01:05:45;27.30;;;11.18;;
82352;SDS011;71954;47.430;18.920;2023-12-20T01:08:12;36.35;;;12.40;;
82352;SDS011;71954;47.430;18.920;2023-12-20T01:10:39;33.70;;;11.38;;
82352;SDS011;71954;47.430;18.920;2023-12-20T01:13:06;33.70;;;11.95;;
82352;SDS011;71954;47.430;18.920;2023-12-20T01:15:33;34.80;;;11.13;;
82352;SDS011;71954;47.430;18.920;2023-12-20T01:17:59;27.20;;;12.32;;
82352;SDS011;71954;47.430;18.920;2023-12-20T01:20:26;33.20;;;11.68;;
82352;SDS011;71954;47.430;18.920;2023-12-20T01:22:53;30.50;;;11.48;;
82352;SDS011;71954;47.430;18.920;2023-12-20T01:25:19;33.95;;;12.07;;
82352;SDS011;71954;47.430;18.920;2023-12-20T01:27:46;29.90;;;10.95;;
82352;SDS011;71954;47.430;18.920;2023-12-20T01:30:14;30.77;;;12.30;;
82352;SDS011;71954;47.430;18.920;2023-12-20T01:32:41;42.17;;;12.75;;
82352;SDS011;71954;47.430;18.920;2023-12-20T01:35:07;33.55;;;11.63;;
82352;SDS011;71954;47.430;18.920;2023-12-20T01:37:34;29.05;;;10.80;;
82352;SDS011;71954;47.430;18.920;2023-12-20T01:40:00;37.05;;;12.45;;
82352;SDS011;71954;47.430;18.920;2023-12-20T01:42:27;28.95;;;10.20;;
82352;SDS011;71954;47.430;18.920;2023-12-20T01:44:54;30.67;;;12.55;;
82352;SDS011;71954;47.430;18.920;2023-12-20T01:47:20;34.25;;;11.63;;
82352;SDS011;71954;47.430;18.920;2023-12-20T01:49:48;34.15;;;12.23;;
82352;SDS011;71954;47.430;18.920;2023-12-20T01:52:16;29.13;;;11.18;;
82352;SDS011;71954;47.430;18.920;2023-12-20T01:54:43;35.22;;;13.32;;
82352;SDS011;71954;47.430;18.920;2023-12-20T01:57:10;32.95;;;12.48;;
82352;SDS011;71954;47.430;18.920;2023-12-20T01:59:38;36.33;;;12.93;;
82352;SDS011;71954;47.430;18.920;2023-12-20T02:02:06;36.67;;;12.10;;
82352;SDS011;71954;47.430;18.920;2023-12-20T02:04:34;31.52;;;13.18;;
82352;SDS011;71954;47.430;18.920;2023-12-20T02:07:01;28.98;;;12.20;;
82352;SDS011;71954;47.430;18.920;2023-12-20T02:09:29;30.15;;;12.75;;
82352;SDS011;71954;47.430;18.920;2023-12-20T02:11:56;33.97;;;12.32;;
82352;SDS011;71954;47.430;18.920;2023-12-20T02:14:23;40.00;;;13.23;;
82352;SDS011;71954;47.430;18.920;2023-12-20T02:16:49;35.20;;;12.88;;
82352;SDS011;71954;47.430;18.920;2023-12-20T02:19:16;35.67;;;12.82;;
82352;SDS011;71954;47.430;18.920;2023-12-20T02:21:46;35.05;;;13.18;;
82352;SDS011;71954;47.430;18.920;2023-12-20T02:24:12;38.03;;;14.10;;
82352;SDS011;71954;47.430;18.920;2023-12-20T02:26:39;33.33;;;12.40;;
82352;SDS011;71954;47.430;18.920;2023-12-20T02:29:11;32.00;;;12.57;;
82352;SDS011;71954;47.430;18.920;2023-12-20T02:31:37;34.15;;;12.40;;
82352;SDS011;71954;47.430;18.920;2023-12-20T02:34:04;30.88;;;12.23;;
82352;SDS011;71954;47.430;18.920;2023-12-20T02:36:31;34.10;;;12.25;;
82352;SDS011;71954;47.430;18.920;2023-12-20T02:38:58;35.55;;;13.25;;
82352;SDS011;71954;47.430;18.920;2023-12-20T02:41:24;31.48;;;12.18;;
82352;SDS011;71954;47.430;18.920;2023-12-20T02:43:51;40.65;;;13.40;;
82352;SDS011;71954;47.430;18.920;2023-12-20T02:46:18;30.70;;;12.38;;
82352;SDS011;71954;47.430;18.920;2023-12-20T02:48:44;34.90;;;11.60;;
82352;SDS011;71954;47.430;18.920;2023-12-20T02:51:11;32.30;;;12.07;;
82352;SDS011;71954;47.430;18.920;2023-12-20T02:53:39;32.50;;;13.10;;
82352;SDS011;71954;47.430;18.920;2023-12-20T02:56:05;33.22;;;13.93;;
82352;SDS011;71954;47.430;18.920;2023-12-20T02:58:32;28.02;;;11.80;;
82352;SDS011;71954;47.430;18.920;2023-12-20T03:00:59;30.48;;;12.63;;
82352;SDS011;71954;47.430;18.920;2023-12-20T03:03:26;33.55;;;13.82;;
82352;SDS011;71954;47.430;18.920;2023-12-20T03:05:52;37.50;;;12.98;;
82352;SDS011;71954;47.430;18.920;2023-12-20T03:08:19;36.47;;;13.98;;
82352;SDS011;71954;47.430;18.920;2023-12-20T03:10:46;42.75;;;14.77;;
82352;SDS011;71954;47.430;18.920;2023-12-20T03:13:12;38.78;;;13.95;;
82352;SDS011;71954;47.430;18.920;2023-12-20T03:15:39;47.63;;;14.35;;
82352;SDS011;71954;47.430;18.920;2023-12-20T03:18:06;41.33;;;14.10;;
82352;SDS011;71954;47.430;18.920;2023-12-20T03:20:32;42.58;;;14.18;;
82352;SDS011;71954;47.430;18.920;2023-12-20T03:23:02;34.50;;;12.18;;
82352;SDS011;71954;47.430;18.920;2023-12-20T03:25:29;35.95;;;13.10;;
82352;SDS011;71954;47.430;18.920;2023-12-20T03:27:56;36.78;;;13.70;;
82352;SDS011;71954;47.430;18.920;2023-12-20T03:30:22;35.60;;;13.45;;
82352;SDS011;71954;47.430;18.920;2023-12-20T03:32:49;33.85;;;13.38;;
82352;SDS011;71954;47.430;18.920;2023-12-20T03:35:15;38.13;;;12.90;;
82352;SDS011;71954;47.430;18.920;2023-12-20T03:37:42;32.75;;;12.40;;
82352;SDS011;71954;47.430;18.920;2023-12-20T03:40:09;41.00;;;13.95;;
82352;SDS011;71954;47.430;18.920;2023-12-20T03:42:36;34.47;;;12.73;;
82352;SDS011;71954;47.430;18.920;2023-12-20T03:45:03;33.63;;;14.85;;
82352;SDS011;71954;47.430;18.920;2023-12-20T03:47:30;43.83;;;13.85;;
82352;SDS011;71954;47.430;18.920;2023-12-20T03:49:57;32.60;;;12.27;;
82352;SDS011;71954;47.430;18.920;2023-12-20T03:52:23;32.42;;;12.70;;
82352;SDS011;71954;47.430;18.920;2023-12-20T03:54:50;35.90;;;12.65;;
82352;SDS011;71954;47.430;18.920;2023-12-20T03:57:17;32.10;;;13.32;;
82352;SDS011;71954;47.430;18.920;2023-12-20T03:59:43;42.85;;;14.30;;
82352;SDS011;71954;47.430;18.920;2023-12-20T04:02:10;35.17;;;13.43;;
82352;SDS011;71954;47.430;18.920;2023-12-20T04:04:36;32.83;;;13.43;;
82352;SDS011;71954;47.430;18.920;2023-12-20T04:07:03;34.53;;;12.90;;
82352;SDS011;71954;47.430;18.920;2023-12-20T04:09:30;33.35;;;13.50;;
82352;SDS011;71954;47.430;18.920;2023-12-20T04:11:57;31.52;;;12.73;;
82352;SDS011;71954;47.430;18.920;2023-12-20T04:14:23;30.38;;;12.48;;
82352;SDS011;71954;47.430;18.920;2023-12-20T04:16:51;32.28;;;12.85;;
82352;SDS011;71954;47.430;18.920;2023-12-20T04:19:18;36.97;;;14.55;;
82352;SDS011;71954;47.430;18.920;2023-12-20T04:21:45;30.60;;;13.00;;
82352;SDS011;71954;47.430;18.920;2023-12-20T04:24:12;33.05;;;12.63;;
82352;SDS011;71954;47.430;18.920;2023-12-20T04:26:39;32.58;;;11.98;;
82352;SDS011;71954;47.430;18.920;2023-12-20T04:29:05;29.58;;;13.23;;
82352;SDS011;71954;47.430;18.920;2023-12-20T04:31:32;31.27;;;11.68;;
82352;SDS011;71954;47.430;18.920;2023-12-20T04:33:58;31.98;;;11.93;;
82352;SDS011;71954;47.430;18.920;2023-12-20T04:36:25;34.08;;;12.40;;
82352;SDS011;71954;47.430;18.920;2023-12-20T04:38:53;28.20;;;11.40;;
82352;SDS011;71954;47.430;18.920;2023-12-20T04:41:20;32.95;;;12.25;;
82352;SDS011;71954;47.430;18.920;2023-12-20T04:43:46;35.50;;;12.43;;
82352;SDS011;71954;47.430;18.920;2023-12-20T04:46:13;35.25;;;12.60;;
82352;SDS011;71954;47.430;18.920;2023-12-20T04:48:39;29.33;;;10.85;;
82352;SDS011;71954;47.430;18.920;2023-12-20T04:51:06;33.00;;;12.02;;
82352;SDS011;71954;47.430;18.920;2023-12-20T04:53:33;32.15;;;11.77;;
82352;SDS011;71954;47.430;18.920;2023-12-20T04:55:59;36.92;;;11.40;;
82352;SDS011;71954;47.430;18.920;2023-12-20T04:58:26;29.90;;;11.60;;
82352;SDS011;71954;47.430;18.920;2023-12-20T05:00:53;24.90;;;10.52;;
82352;SDS011;71954;47.430;18.920;2023-12-20T05:03:19;35.42;;;12.05;;
82352;SDS011;71954;47.430;18.920;2023-12-20T05:05:46;24.80;;;10.32;;
82352;SDS011;71954;47.430;18.920;2023-12-20T05:08:12;25.20;;;10.88;;
82352;SDS011;71954;47.430;18.920;2023-12-20T05:10:39;26.42;;;10.38;;
82352;SDS011;71954;47.430;18.920;2023-12-20T05:13:06;32.00;;;12.15;;
82352;SDS011;71954;47.430;18.920;2023-12-20T05:15:34;30.85;;;12.30;;
82352;SDS011;71954;47.430;18.920;2023-12-20T05:18:01;39.20;;;12.77;;
82352;SDS011;71954;47.430;18.920;2023-12-20T05:20:27;27.85;;;11.20;;
82352;SDS011;71954;47.430;18.920;2023-12-20T05:22:54;26.48;;;11.63;;
82352;SDS011;71954;47.430;18.920;2023-12-20T05:25:20;27.55;;;11.30;;
82352;SDS011;71954;47.430;18.920;2023-12-20T05:27:47;34.63;;;10.90;;
82352;SDS011;71954;47.430;18.920;2023-12-20T05:30:15;27.02;;;11.38;;
82352;SDS011;71954;47.430;18.920;2023-12-20T05:32:41;23.23;;;10.65;;
82352;SDS011;71954;47.430;18.920;2023-12-20T05:35:08;29.88;;;11.93;;
82352;SDS011;71954;47.430;18.920;2023-12-20T05:37:35;33.50;;;10.77;;
82352;SDS011;71954;47.430;18.920;2023-12-20T05:40:01;37.80;;;12.25;;
82352;SDS011;71954;47.430;18.920;2023-12-20T05:42:28;25.67;;;9.90;;
82352;SDS011;71954;47.430;18.920;2023-12-20T05:44:55;26.85;;;11.93;;
82352;SDS011;71954;47.430;18.920;2023-12-20T05:47:24;26.85;;;10.10;;
82352;SDS011;71954;47.430;18.920;2023-12-20T05:49:51;33.05;;;11.82;;
82352;SDS011;71954;47.430;18.920;2023-12-20T05:52:17;26.75;;;11.80;;
82352;SDS011;71954;47.430;18.920;2023-12-20T05:54:44;26.20;;;11.93;;
82352;SDS011;71954;47.430;18.920;2023-12-20T05:57:10;29.15;;;10.70;;
82352;SDS011;71954;47.430;18.920;2023-12-20T05:59:37;26.38;;;10.15;;
82352;SDS011;71954;47.430;18.920;2023-12-20T06:02:04;26.83;;;11.23;;
82352;SDS011;71954;47.430;18.920;2023-12-20T06:04:31;25.80;;;9.50;;
82352;SDS011;71954;47.430;18.920;2023-12-20T06:06:58;25.25;;;9.90;;
82352;SDS011;71954;47.430;18.920;2023-12-20T06:09:29;24.27;;;11.32;;
82352;SDS011;71954;47.430;18.920;2023-12-20T06:11:57;26.27;;;11.55;;
82352;SDS011;71954;47.430;18.920;2023-12-20T06:14:24;24.23;;;10.55;;
82352;SDS011;71954;47.430;18.920;2023-12-20T06:16:50;26.77;;;11.35;;
82352;SDS011;71954;47.430;18.920;2023-12-20T06:19:17;33.85;;;12.30;;
82352;SDS011;71954;47.430;18.920;2023-12-20T06:21:44;31.75;;;12.05;;
82352;SDS011;71954;47.430;18.920;2023-12-20T06:24:11;26.17;;;10.65;;
82352;SDS011;71954;47.430;18.920;2023-12-20T06:26:38;32.03;;;11.75;;
82352;SDS011;71954;47.430;18.920;2023-12-20T06:29:04;27.25;;;10.13;;
82352;SDS011;71954;47.430;18.920;2023-12-20T06:31:31;31.15;;;12.02;;
82352;SDS011;71954;47.430;18.920;2023-12-20T06:33:59;26.80;;;11.95;;
82352;SDS011;71954;47.430;18.920;2023-12-20T06:36:26;28.90;;;11.38;;
82352;SDS011;71954;47.430;18.920;2023-12-20T06:38:53;24.20;;;10.23;;
82352;SDS011;71954;47.430;18.920;2023-12-20T06:41:19;24.75;;;11.73;;
82352;SDS011;71954;47.430;18.920;2023-12-20T06:43:46;24.10;;;9.93;;
82352;SDS011;71954;47.430;18.920;2023-12-20T06:46:16;27.00;;;10.45;;
82352;SDS011;71954;47.430;18.920;2023-12-20T06:48:43;28.10;;;11.15;;
82352;SDS011;71954;47.430;18.920;2023-12-20T06:51:11;25.90;;;9.80;;
82352;SDS011;71954;47.430;18.920;2023-12-20T06:53:40;22.63;;;9.98;;
82352;SDS011;71954;47.430;18.920;2023-12-20T06:56:07;27.83;;;11.13;;
82352;SDS011;71954;47.430;18.920;2023-12-20T06:58:34;23.92;;;9.15;;
82352;SDS011;71954;47.430;18.920;2023-12-20T07:01:00;30.00;;;11.90;;
82352;SDS011;71954;47.430;18.920;2023-12-20T07:03:27;23.35;;;10.98;;
82352;SDS011;71954;47.430;18.920;2023-12-20T07:05:53;30.58;;;12.07;;
82352;SDS011;71954;47.430;18.920;2023-12-20T07:08:20;26.17;;;11.45;;
82352;SDS011;71954;47.430;18.920;2023-12-20T07:10:47;33.47;;;12.63;;
82352;SDS011;71954;47.430;18.920;2023-12-20T07:13:13;29.48;;;13.48;;
82352;SDS011;71954;47.430;18.920;2023-12-20T07:15:40;29.73;;;12.70;;
82352;SDS011;71954;47.430;18.920;2023-12-20T07:18:07;34.53;;;12.40;;
82352;SDS011;71954;47.430;18.920;2023-12-20T07:20:34;35.22;;;12.02;;
82352;SDS011;71954;47.430;18.920;2023-12-20T07:23:00;29.50;;;12.65;;
82352;SDS011;71954;47.430;18.920;2023-12-20T07:25:27;31.95;;;12.80;;
82352;SDS011;71954;47.430;18.920;2023-12-20T07:27:54;33.05;;;12.43;;
82352;SDS011;71954;47.430;18.920;2023-12-20T07:30:21;28.00;;;10.98;;
82352;SDS011;71954;47.430;18.920;2023-12-20T07:32:47;32.03;;;12.07;;
82352;SDS011;71954;47.430;18.920;2023-12-20T07:35:15;27.90;;;10.63;;
82352;SDS011;71954;47.430;18.920;2023-12-20T07:37:42;27.65;;;12.70;;
82352;SDS011;71954;47.430;18.920;2023-12-20T07:40:09;36.45;;;12.68;;
82352;SDS011;71954;47.430;18.920;2023-12-20T07:42:36;32.55;;;12.70;;
82352;SDS011;71954;47.430;18.920;2023-12-20T07:45:03;38.50;;;15.10;;
82352;SDS011;71954;47.430;18.920;2023-12-20T07:47:30;28.60;;;13.25;;
82352;SDS011;71954;47.430;18.920;2023-12-20T07:49:57;28.02;;;12.75;;
82352;SDS011;71954;47.430;18.920;2023-12-20T07:52:23;37.47;;;13.65;;
82352;SDS011;71954;47.430;18.920;2023-12-20T07:54:50;28.42;;;12.52;;
82352;SDS011;71954;47.430;18.920;2023-12-20T07:57:17;36.28;;;14.10;;
82352;SDS011;71954;47.430;18.920;2023-12-20T07:59:43;31.98;;;14.75;;
82352;SDS011;71954;47.430;18.920;2023-12-20T08:02:10;36.40;;;15.45;;
82352;SDS011;71954;47.430;18.920;2023-12-20T08:04:37;39.00;;;14.07;;
82352;SDS011;71954;47.430;18.920;2023-12-20T08:07:04;35.15;;;14.52;;
82352;SDS011;71954;47.430;18.920;2023-12-20T08:09:31;35.92;;;15.05;;
82352;SDS011;71954;47.430;18.920;2023-12-20T08:11:58;29.63;;;12.88;;
82352;SDS011;71954;47.430;18.920;2023-12-20T08:14:26;33.92;;;14.73;;
82352;SDS011;71954;47.430;18.920;2023-12-20T08:16:52;36.70;;;13.25;;
82352;SDS011;71954;47.430;18.920;2023-12-20T08:19:19;38.67;;;13.98;;
82352;SDS011;71954;47.430;18.920;2023-12-20T08:21:46;42.33;;;15.38;;
82352;SDS011;71954;47.430;18.920;2023-12-20T08:24:12;36.50;;;14.55;;
82352;SDS011;71954;47.430;18.920;2023-12-20T08:26:39;30.20;;;12.70;;
82352;SDS011;71954;47.430;18.920;2023-12-20T08:29:05;33.33;;;13.30;;
82352;SDS011;71954;47.430;18.920;2023-12-20T08:31:32;36.38;;;14.93;;
82352;SDS011;71954;47.430;18.920;2023-12-20T08:33:59;35.10;;;14.43;;
82352;SDS011;71954;47.430;18.920;2023-12-20T08:36:26;36.45;;;14.43;;
82352;SDS011;71954;47.430;18.920;2023-12-20T08:38:52;30.55;;;14.00;;
82352;SDS011;71954;47.430;18.920;2023-12-20T08:41:19;34.08;;;15.13;;
82352;SDS011;71954;47.430;18.920;2023-12-20T08:43:46;37.03;;;15.52;;
82352;SDS011;71954;47.430;18.920;2023-12-20T08:46:14;35.53;;;14.48;;
82352;SDS011;71954;47.430;18.920;2023-12-20T08:48:41;36.35;;;15.65;;
82352;SDS011;71954;47.430;18.920;2023-12-20T08:51:08;36.65;;;15.50;;
82352;SDS011;71954;47.430;18.920;2023-12-20T08:53:36;34.28;;;15.05;;
82352;SDS011;71954;47.430;18.920;2023-12-20T08:56:03;37.92;;;14.93;;
82352;SDS011;71954;47.430;18.920;2023-12-20T08:58:30;40.63;;;16.02;;
82352;SDS011;71954;47.430;18.920;2023-12-20T09:00:57;39.00;;;16.80;;
82352;SDS011;71954;47.430;18.920;2023-12-20T09:03:24;50.97;;;21.15;;
82352;SDS011;71954;47.430;18.920;2023-12-20T09:05:51;47.08;;;18.83;;
82352;SDS011;71954;47.430;18.920;2023-12-20T09:08:17;46.15;;;18.15;;
82352;SDS011;71954;47.430;18.920;2023-12-20T09:10:44;42.80;;;17.83;;
82352;SDS011;71954;47.430;18.920;2023-12-20T09:13:11;46.05;;;18.75;;
82352;SDS011;71954;47.430;18.920;2023-12-20T09:15:38;42.05;;;18.05;;
82352;SDS011;71954;47.430;18.920;2023-12-20T09:18:05;40.78;;;16.92;;
82352;SDS011;71954;47.430;18.920;2023-12-20T09:20:32;39.45;;;16.40;;
82352;SDS011;71954;47.430;18.920;2023-12-20T09:22:59;42.45;;;18.23;;
82352;SDS011;71954;47.430;18.920;2023-12-20T09:25:26;40.40;;;16.52;;
82352;SDS011;71954;47.430;18.920;2023-12-20T09:27:53;37.65;;;16.60;;
82352;SDS011;71954;47.430;18.920;2023-12-20T09:30:20;37.22;;;16.48;;
82352;SDS011;71954;47.430;18.920;2023-12-20T09:32:53;38.97;;;17.10;;
82352;SDS011;71954;47.430;18.920;2023-12-20T09:35:21;40.97;;;17.02;;
82352;SDS011;71954;47.430;18.920;2023-12-20T09:40:17;38.35;;;16.63;;
82352;SDS011;71954;47.430;18.920;2023-12-20T09:42:55;37.20;;;15.10;;
82352;SDS011;71954;47.430;18.920;2023-12-20T09:45:24;33.13;;;14.48;;
82352;SDS011;71954;47.430;18.920;2023-12-20T09:47:52;31.60;;;15.77;;
82352;SDS011;71954;47.430;18.920;2023-12-20T09:50:20;36.92;;;16.02;;
82352;SDS011;71954;47.430;18.920;2023-12-20T09:52:49;31.50;;;12.98;;
82352;SDS011;71954;47.430;18.920;2023-12-20T09:55:18;30.05;;;12.98;;
82352;SDS011;71954;47.430;18.920;2023-12-20T09:57:46;24.65;;;12.38;;
82352;SDS011;71954;47.430;18.920;2023-12-20T10:00:15;26.00;;;11.20;;
82352;SDS011;71954;47.430;18.920;2023-12-20T10:02:50;20.40;;;10.77;;
82352;SDS011;71954;47.430;18.920;2023-12-20T10:05:26;24.10;;;11.30;;
82352;SDS011;71954;47.430;18.920;2023-12-20T10:07:55;22.73;;;11.50;;
82352;SDS011;71954;47.430;18.920;2023-12-20T10:10:22;20.48;;;11.38;;
82352;SDS011;71954;47.430;18.920;2023-12-20T10:13:06;19.88;;;9.63;;
82352;SDS011;71954;47.430;18.920;2023-12-20T10:15:35;22.83;;;10.07;;
82352;SDS011;71954;47.430;18.920;2023-12-20T10:18:05;22.55;;;10.32;;
82352;SDS011;71954;47.430;18.920;2023-12-20T10:20:33;20.48;;;9.50;;
82352;SDS011;71954;47.430;18.920;2023-12-20T10:23:00;21.40;;;10.27;;
82352;SDS011;71954;47.430;18.920;2023-12-20T10:25:27;25.23;;;11.25;;
82352;SDS011;71954;47.430;18.920;2023-12-20T10:28:13;15.60;;;7.88;;
82352;SDS011;71954;47.430;18.920;2023-12-20T10:30:43;22.23;;;11.20;;
82352;SDS011;71954;47.430;18.920;2023-12-20T10:33:10;21.33;;;9.90;;
82352;SDS011;71954;47.430;18.920;2023-12-20T10:35:38;20.63;;;10.18;;
82352;SDS011;71954;47.430;18.920;2023-12-20T10:38:10;22.15;;;10.70;;
82352;SDS011;71954;47.430;18.920;2023-12-20T10:40:40;23.02;;;10.30;;
82352;SDS011;71954;47.430;18.920;2023-12-20T10:43:07;21.80;;;11.10;;
82352;SDS011;71954;47.430;18.920;2023-12-20T10:45:35;23.20;;;11.15;;
82352;SDS011;71954;47.430;18.920;2023-12-20T10:48:02;23.52;;;10.60;;
82352;SDS011;71954;47.430;18.920;2023-12-20T10:50:30;20.27;;;10.48;;
82352;SDS011;71954;47.430;18.920;2023-12-20T10:52:58;21.40;;;11.00;;
82352;SDS011;71954;47.430;18.920;2023-12-20T10:55:25;23.83;;;11.30;;
82352;SDS011;71954;47.430;18.920;2023-12-20T10:57:52;21.73;;;11.20;;
82352;SDS011;71954;47.430;18.920;2023-12-20T11:00:25;21.05;;;10.27;;
82352;SDS011;71954;47.430;18.920;2023-12-20T11:02:52;20.15;;;9.32;;
82352;SDS011;71954;47.430;18.920;2023-12-20T11:05:25;21.88;;;10.98;;
82352;SDS011;71954;47.430;18.920;2023-12-20T11:08:02;20.67;;;10.63;;
82352;SDS011;71954;47.430;18.920;2023-12-20T11:13:34;21.42;;;9.55;;
82352;SDS011;71954;47.430;18.920;2023-12-20T11:16:06;19.50;;;9.27;;
82352;SDS011;71954;47.430;18.920;2023-12-20T11:18:34;23.10;;;10.48;;
82352;SDS011;71954;47.430;18.920;2023-12-20T11:21:02;20.75;;;10.05;;
82352;SDS011;71954;47.430;18.920;2023-12-20T11:23:30;21.35;;;11.15;;
82352;SDS011;71954;47.430;18.920;2023-12-20T11:26:00;21.33;;;10.25;;
82352;SDS011;71954;47.430;18.920;2023-12-20T11:28:28;18.10;;;9.32;;
82352;SDS011;71954;47.430;18.920;2023-12-20T11:30:58;22.10;;;10.25;;
82352;SDS011;71954;47.430;18.920;2023-12-20T11:33:35;16.92;;;9.05;;
82352;SDS011;71954;47.430;18.920;2023-12-20T11:36:03;21.98;;;10.57;;
82352;SDS011;71954;47.430;18.920;2023-12-20T11:38:36;18.98;;;9.30;;
82352;SDS011;71954;47.430;18.920;2023-12-20T11:41:06;18.77;;;9.05;;
82352;SDS011;71954;47.430;18.920;2023-12-20T11:43:36;21.38;;;9.90;;
82352;SDS011;71954;47.430;18.920;2023-12-20T11:46:08;21.77;;;10.65;;
82352;SDS011;71954;47.430;18.920;2023-12-20T11:48:39;19.90;;;10.07;;
82352;SDS011;71954;47.430;18.920;2023-12-20T11:51:11;21.90;;;10.27;;
82352;SDS011;71954;47.430;18.920;2023-12-20T11:53:39;22.60;;;10.07;;
82352;SDS011;71954;47.430;18.920;2023-12-20T11:58:33;18.95;;;9.88;;
82352;SDS011;71954;47.430;18.920;2023-12-20T12:01:00;22.20;;;10.13;;
82352;SDS011;71954;47.430;18.920;2023-12-20T12:03:29;20.50;;;10.20;;
82352;SDS011;71954;47.430;18.920;2023-12-20T12:05:55;19.63;;;10.88;;
82352;SDS011;71954;47.430;18.920;2023-12-20T12:08:22;25.33;;;12.00;;
82352;SDS011;71954;47.430;18.920;2023-12-20T12:10:49;21.17;;;10.27;;
82352;SDS011;71954;47.430;18.920;2023-12-20T12:13:15;18.95;;;9.63;;
82352;SDS011;71954;47.430;18.920;2023-12-20T12:15:42;22.00;;;10.38;;
82352;SDS011;71954;47.430;18.920;2023-12-20T12:18:10;20.67;;;9.75;;
82352;SDS011;71954;47.430;18.920;2023-12-20T12:20:38;18.27;;;8.77;;
82352;SDS011;71954;47.430;18.920;2023-12-20T12:23:04;16.88;;;7.90;;
82352;SDS011;71954;47.430;18.920;2023-12-20T12:25:34;15.30;;;7.75;;
82352;SDS011;71954;47.430;18.920;2023-12-20T12:28:08;14.30;;;7.45;;
82352;SDS011;71954;47.430;18.920;2023-12-20T12:30:34;15.23;;;7.50;;
82352;SDS011;71954;47.430;18.920;2023-12-20T12:33:11;15.35;;;6.65;;
82352;SDS011;71954;47.430;18.920;2023-12-20T12:38:07;11.77;;;5.97;;
82352;SDS011;71954;47.430;18.920;2023-12-20T12:40:34;10.95;;;5.57;;
82352;SDS011;71954;47.430;18.920;2023-12-20T12:43:02;11.65;;;5.85;;
82352;SDS011;71954;47.430;18.920;2023-12-20T12:45:29;11.90;;;6.25;;
82352;SDS011;71954;47.430;18.920;2023-12-20T12:47:55;11.27;;;5.55;;
82352;SDS011;71954;47.430;18.920;2023-12-20T12:50:22;9.70;;;5.32;;
82352;SDS011;71954;47.430;18.920;2023-12-20T12:52:49;10.65;;;4.72;;
82352;SDS011;71954;47.430;18.920;2023-12-20T12:55:16;12.50;;;6.00;;
82352;SDS011;71954;47.430;18.920;2023-12-20T12:57:42;11.15;;;5.40;;
82352;SDS011;71954;47.430;18.920;2023-12-20T13:00:10;11.40;;;5.90;;
82352;SDS011;71954;47.430;18.920;2023-12-20T13:02:37;9.02;;;4.13;;
82352;SDS011;71954;47.430;18.920;2023-12-20T13:05:08;9.18;;;5.22;;
82352;SDS011;71954;47.430;18.920;2023-12-20T13:07:35;9.25;;;4.72;;
82352;SDS011;71954;47.430;18.920;2023-12-20T13:10:04;9.13;;;4.68;;
82352;SDS011;71954;47.430;18.920;2023-12-20T13:12:32;9.52;;;5.97;;
82352;SDS011;71954;47.430;18.920;2023-12-20T13:14:59;12.35;;;5.05;;
82352;SDS011;71954;47.430;18.920;2023-12-20T13:17:25;10.43;;;5.13;;
82352;SDS011;71954;47.430;18.920;2023-12-20T13:19:55;13.02;;;6.00;;
82352;SDS011;71954;47.430;18.920;2023-12-20T13:22:22;12.23;;;5.63;;
82352;SDS011;71954;47.430;18.920;2023-12-20T13:24:48;14.30;;;6.35;;
82352;SDS011;71954;47.430;18.920;2023-12-20T13:27:15;15.07;;;6.43;;
82352;SDS011;71954;47.430;18.920;2023-12-20T13:29:42;15.32;;;6.32;;
82352;SDS011;71954;47.430;18.920;2023-12-20T13:32:08;10.40;;;5.75;;
82352;SDS011;71954;47.430;18.920;2023-12-20T13:34:35;12.73;;;6.80;;
82352;SDS011;71954;47.430;18.920;2023-12-20T13:37:02;11.77;;;5.78;;
82352;SDS011;71954;47.430;18.920;2023-12-20T13:39:29;13.00;;;6.18;;
82352;SDS011;71954;47.430;18.920;2023-12-20T13:41:57;14.23;;;5.88;;
82352;SDS011;71954;47.430;18.920;2023-12-20T13:44:26;14.75;;;6.68;;
82352;SDS011;71954;47.430;18.920;2023-12-20T13:46:53;15.32;;;7.72;;
82352;SDS011;71954;47.430;18.920;2023-12-20T13:49:20;17.02;;;7.35;;
82352;SDS011;71954;47.430;18.920;2023-12-20T13:54:14;17.13;;;8.15;;
82352;SDS011;71954;47.430;18.920;2023-12-20T13:56:43;15.80;;;6.60;;
82352;SDS011;71954;47.430;18.920;2023-12-20T13:59:27;13.85;;;7.38;;
82352;SDS011;71954;47.430;18.920;2023-12-20T14:01:54;13.57;;;7.00;;
82352;SDS011;71954;47.430;18.920;2023-12-20T14:04:21;13.90;;;7.22;;
82352;SDS011;71954;47.430;18.920;2023-12-20T14:07:08;13.90;;;6.75;;
82352;SDS011;71954;47.430;18.920;2023-12-20T14:09:36;14.95;;;7.53;;
82352;SDS011;71954;47.430;18.920;2023-12-20T14:12:02;17.08;;;7.75;;
82352;SDS011;71954;47.430;18.920;2023-12-20T14:14:29;15.85;;;7.63;;
82352;SDS011;71954;47.430;18.920;2023-12-20T14:16:56;14.38;;;6.57;;
82352;SDS011;71954;47.430;18.920;2023-12-20T14:19:22;17.05;;;7.93;;
82352;SDS011;71954;47.430;18.920;2023-12-20T14:21:49;15.15;;;7.57;;
82352;SDS011;71954;47.430;18.920;2023-12-20T14:24:16;16.45;;;8.05;;
82352;SDS011;71954;47.430;18.920;2023-12-20T14:26:43;16.67;;;8.00;;